sensor_id;sensor_type;location;lat;lon;timestamp;temperature;humidity
23403;DHT22;11874;48.228;11.684;2023-02-23T00:01:42;10.60;99.90
23403;DHT22;11874;48.228;11.684;2023-02-23T00:04:10;10.60;99.90
23403;DHT22;11874;48.228;11.684;2023-02-23T00:06:38;10.60;99.90
23403;DHT22;11874;48.228;11.684;2023-02-23T00:09:06;10.60;99.90
23403;DHT22;11874;48.228;11.684;2023-02-23T07:53:20;10.00;99.90
23403;DHT22;11874;48.228;11.684;2023-02-23T07:55:54;10.00;99.90
23403;DHT22;11874;48.228;11.684;2023-02-23T07:58:22;10.10;99.90
23403;DHT22;11874;48.228;11.684;2023-02-23T08:00:50;10.10;99.90
23403;DHT22;11874;48.228;11.684;2023-02-23T08:03:18;10.20;99.90
23403;DHT22;11874;48.228;11.684;2023-02-23T08:05:46;10.20;99.90
23403;DHT22;11874;48.228;11.684;2023-02-23T08:08:14;10.30;99.90
23403;DHT22;11874;48.228;11.684;2023-02-23T08:10:43;10.90;99.90
23403;DHT22;11874;48.228;11.684;2023-02-23T08:13:11;10.70;99.90
23403;DHT22;11874;48.228;11.684;2023-02-23T08:15:39;10.40;99.90
23403;DHT22;11874;48.228;11.684;2023-02-23T08:18:07;10.50;99.90
23403;DHT22;11874;48.228;11.684;2023-02-23T08:20:35;10.50;99.90
23403;DHT22;11874;48.228;11.684;2023-02-23T08:23:02;10.50;99.90
23403;DHT22;11874;48.228;11.684;2023-02-23T08:25:31;10.50;99.90
23403;DHT22;11874;48.228;11.684;2023-02-23T08:28:01;10.50;99.90
23403;DHT22;11874;48.228;11.684;2023-02-23T08:30:30;10.60;99.90
23403;DHT22;11874;48.228;11.684;2023-02-23T08:32:58;10.70;99.90
23403;DHT22;11874;48.228;11.684;2023-02-23T08:35:27;10.60;99.90
23403;DHT22;11874;48.228;11.684;2023-02-23T08:38:08;10.60;99.90
23403;DHT22;11874;48.228;11.684;2023-02-23T08:40:37;10.60;99.90
23403;DHT22;11874;48.228;11.684;2023-02-23T08:43:06;10.60;99.90
23403;DHT22;11874;48.228;11.684;2023-02-23T08:45:34;11.10;99.90
23403;DHT22;11874;48.228;11.684;2023-02-23T08:48:04;10.70;99.90
23403;DHT22;11874;48.228;11.684;2023-02-23T08:50:32;10.70;99.90
23403;DHT22;11874;48.228;11.684;2023-02-23T08:53:00;10.70;99.90
23403;DHT22;11874;48.228;11.684;2023-02-23T08:55:28;10.70;99.90
23403;DHT22;11874;48.228;11.684;2023-02-23T08:57:56;10.70;99.90
23403;DHT22;11874;48.228;11.684;2023-02-23T09:00:25;10.70;99.90
23403;DHT22;11874;48.228;11.684;2023-02-23T09:02:53;10.70;99.90
23403;DHT22;11874;48.228;11.684;2023-02-23T09:05:21;10.60;99.90
23403;DHT22;11874;48.228;11.684;2023-02-23T09:07:49;10.70;99.90
23403;DHT22;11874;48.228;11.684;2023-02-23T09:10:19;10.70;99.90
23403;DHT22;11874;48.228;11.684;2023-02-23T09:12:50;10.70;99.90
23403;DHT22;11874;48.228;11.684;2023-02-23T09:15:18;10.70;99.90
23403;DHT22;11874;48.228;11.684;2023-02-23T09:17:47;10.90;99.90
23403;DHT22;11874;48.228;11.684;2023-02-23T09:20:16;10.80;99.90
23403;DHT22;11874;48.228;11.684;2023-02-23T09:22:44;10.80;99.90
23403;DHT22;11874;48.228;11.684;2023-02-23T09:25:14;10.80;99.90
23403;DHT22;11874;48.228;11.684;2023-02-23T09:27:44;10.90;99.90
23403;DHT22;11874;48.228;11.684;2023-02-23T09:30:13;11.00;99.90
23403;DHT22;11874;48.228;11.684;2023-02-23T09:32:45;10.90;99.90
23403;DHT22;11874;48.228;11.684;2023-02-23T09:35:17;11.00;99.90
23403;DHT22;11874;48.228;11.684;2023-02-23T09:37:47;11.00;99.90
23403;DHT22;11874;48.228;11.684;2023-02-23T09:40:18;11.00;99.90
23403;DHT22;11874;48.228;11.684;2023-02-23T09:42:48;11.00;99.90
23403;DHT22;11874;48.228;11.684;2023-02-23T09:45:28;11.10;99.90
23403;DHT22;11874;48.228;11.684;2023-02-23T09:48:08;11.10;99.90
23403;DHT22;11874;48.228;11.684;2023-02-23T09:50:39;11.10;99.90
23403;DHT22;11874;48.228;11.684;2023-02-23T09:53:14;11.20;99.90
23403;DHT22;11874;48.228;11.684;2023-02-23T09:55:48;11.20;99.90
23403;DHT22;11874;48.228;11.684;2023-02-23T09:58:20;11.40;99.90
23403;DHT22;11874;48.228;11.684;2023-02-23T10:01:04;11.20;99.90
23403;DHT22;11874;48.228;11.684;2023-02-23T10:03:38;11.20;99.90
23403;DHT22;11874;48.228;11.684;2023-02-23T10:06:13;11.30;99.90
23403;DHT22;11874;48.228;11.684;2023-02-23T10:08:50;11.30;99.90
23403;DHT22;11874;48.228;11.684;2023-02-23T10:11:27;11.30;99.90
23403;DHT22;11874;48.228;11.684;2023-02-23T10:14:11;11.30;99.90
23403;DHT22;11874;48.228;11.684;2023-02-23T10:16:52;11.30;99.90
23403;DHT22;11874;48.228;11.684;2023-02-23T10:19:27;11.40;99.90
23403;DHT22;11874;48.228;11.684;2023-02-23T10:22:02;11.30;99.90
23403;DHT22;11874;48.228;11.684;2023-02-23T10:24:35;11.30;99.90
23403;DHT22;11874;48.228;11.684;2023-02-23T10:27:07;11.40;99.90
23403;DHT22;11874;48.228;11.684;2023-02-23T10:29:41;11.40;99.90
23403;DHT22;11874;48.228;11.684;2023-02-23T10:32:17;11.40;99.90
23403;DHT22;11874;48.228;11.684;2023-02-23T10:34:50;11.40;99.90
23403;DHT22;11874;48.228;11.684;2023-02-23T10:37:21;11.40;99.90
23403;DHT22;11874;48.228;11.684;2023-02-23T10:39:49;11.40;99.90
23403;DHT22;11874;48.228;11.684;2023-02-23T10:42:21;11.40;99.90
23403;DHT22;11874;48.228;11.684;2023-02-23T10:44:50;11.40;99.90
23403;DHT22;11874;48.228;11.684;2023-02-23T10:47:20;11.50;99.90
23403;DHT22;11874;48.228;11.684;2023-02-23T10:49:51;11.50;99.90
23403;DHT22;11874;48.228;11.684;2023-02-23T10:52:24;11.50;99.90
23403;DHT22;11874;48.228;11.684;2023-02-23T10:54:54;11.50;99.90
23403;DHT22;11874;48.228;11.684;2023-02-23T10:57:26;11.60;99.90
23403;DHT22;11874;48.228;11.684;2023-02-23T11:00:05;11.50;99.90
23403;DHT22;11874;48.228;11.684;2023-02-23T11:02:34;11.50;99.90
23403;DHT22;11874;48.228;11.684;2023-02-23T11:05:05;11.50;99.90
23403;DHT22;11874;48.228;11.684;2023-02-23T11:07:34;11.50;99.90
23403;DHT22;11874;48.228;11.684;2023-02-23T11:10:24;11.60;99.90
23403;DHT22;11874;48.228;11.684;2023-02-23T11:12:53;11.50;99.90
23403;DHT22;11874;48.228;11.684;2023-02-23T11:15:26;11.50;99.90
23403;DHT22;11874;48.228;11.684;2023-02-23T11:18:20;11.50;99.90
23403;DHT22;11874;48.228;11.684;2023-02-23T11:20:52;11.50;99.90
23403;DHT22;11874;48.228;11.684;2023-02-23T11:23:23;11.70;99.90
23403;DHT22;11874;48.228;11.684;2023-02-23T11:25:57;11.50;99.90
23403;DHT22;11874;48.228;11.684;2023-02-23T11:28:29;11.50;99.90
23403;DHT22;11874;48.228;11.684;2023-02-23T11:31:02;11.50;99.90
23403;DHT22;11874;48.228;11.684;2023-02-23T11:33:33;11.50;99.90
23403;DHT22;11874;48.228;11.684;2023-02-23T11:36:17;11.70;99.90
23403;DHT22;11874;48.228;11.684;2023-02-23T11:39:02;11.50;99.90
23403;DHT22;11874;48.228;11.684;2023-02-23T11:41:31;11.50;99.90
23403;DHT22;11874;48.228;11.684;2023-02-23T11:44:01;11.60;99.90
23403;DHT22;11874;48.228;11.684;2023-02-23T11:46:35;11.70;99.90
23403;DHT22;11874;48.228;11.684;2023-02-23T11:49:06;11.70;99.90
23403;DHT22;11874;48.228;11.684;2023-02-23T11:51:37;11.70;99.90
23403;DHT22;11874;48.228;11.684;2023-02-23T11:54:20;11.60;99.90
23403;DHT22;11874;48.228;11.684;2023-02-23T11:56:49;11.80;99.90
23403;DHT22;11874;48.228;11.684;2023-02-23T11:59:26;11.80;99.90
23403;DHT22;11874;48.228;11.684;2023-02-23T12:02:00;11.90;99.90
23403;DHT22;11874;48.228;11.684;2023-02-23T12:04:32;12.00;99.90
23403;DHT22;11874;48.228;11.684;2023-02-23T12:07:31;11.90;99.90
23403;DHT22;11874;48.228;11.684;2023-02-23T12:10:12;11.90;99.90
23403;DHT22;11874;48.228;11.684;2023-02-23T12:12:48;11.90;99.90
23403;DHT22;11874;48.228;11.684;2023-02-23T12:15:23;11.90;99.90
23403;DHT22;11874;48.228;11.684;2023-02-23T12:17:55;11.90;99.90
23403;DHT22;11874;48.228;11.684;2023-02-23T12:20:26;11.90;99.90
23403;DHT22;11874;48.228;11.684;2023-02-23T12:22:58;12.00;99.90
23403;DHT22;11874;48.228;11.684;2023-02-23T12:25:36;12.00;99.90
23403;DHT22;11874;48.228;11.684;2023-02-23T12:28:11;12.10;99.90
23403;DHT22;11874;48.228;11.684;2023-02-23T12:30:47;12.10;99.90
23403;DHT22;11874;48.228;11.684;2023-02-23T12:33:20;12.20;99.90
23403;DHT22;11874;48.228;11.684;2023-02-23T12:35:53;12.30;99.90
23403;DHT22;11874;48.228;11.684;2023-02-23T12:38:27;12.50;99.90
23403;DHT22;11874;48.228;11.684;2023-02-23T12:41:03;12.70;99.90
23403;DHT22;11874;48.228;11.684;2023-02-23T12:43:39;13.30;99.90
23403;DHT22;11874;48.228;11.684;2023-02-23T12:46:18;13.40;99.90
23403;DHT22;11874;48.228;11.684;2023-02-23T12:48:56;13.40;99.90
23403;DHT22;11874;48.228;11.684;2023-02-23T12:51:30;13.10;99.90
23403;DHT22;11874;48.228;11.684;2023-02-23T12:54:00;13.10;99.90
23403;DHT22;11874;48.228;11.684;2023-02-23T12:56:34;13.00;99.90
23403;DHT22;11874;48.228;11.684;2023-02-23T12:59:44;12.90;99.90
23403;DHT22;11874;48.228;11.684;2023-02-23T13:02:21;12.80;99.90
23403;DHT22;11874;48.228;11.684;2023-02-23T13:05:17;12.80;99.90
23403;DHT22;11874;48.228;11.684;2023-02-23T13:07:55;12.90;99.90
23403;DHT22;11874;48.228;11.684;2023-02-23T13:10:44;13.00;99.90
23403;DHT22;11874;48.228;11.684;2023-02-23T13:13:24;12.90;99.90
23403;DHT22;11874;48.228;11.684;2023-02-23T13:15:59;12.80;99.90
23403;DHT22;11874;48.228;11.684;2023-02-23T13:18:32;12.70;99.90
23403;DHT22;11874;48.228;11.684;2023-02-23T13:21:06;12.70;99.90
23403;DHT22;11874;48.228;11.684;2023-02-23T13:23:39;12.70;99.90
23403;DHT22;11874;48.228;11.684;2023-02-23T13:26:17;12.60;99.90
23403;DHT22;11874;48.228;11.684;2023-02-23T13:28:54;12.60;99.90
23403;DHT22;11874;48.228;11.684;2023-02-23T13:31:25;12.60;99.90
23403;DHT22;11874;48.228;11.684;2023-02-23T13:33:56;12.60;99.90
23403;DHT22;11874;48.228;11.684;2023-02-23T13:36:26;12.70;99.90
23403;DHT22;11874;48.228;11.684;2023-02-23T13:41:59;12.70;99.90
23403;DHT22;11874;48.228;11.684;2023-02-23T13:44:37;12.70;99.90
23403;DHT22;11874;48.228;11.684;2023-02-23T13:47:14;12.70;99.90
23403;DHT22;11874;48.228;11.684;2023-02-23T13:49:49;12.80;99.90
23403;DHT22;11874;48.228;11.684;2023-02-23T13:52:28;12.90;99.90
23403;DHT22;11874;48.228;11.684;2023-02-23T13:54:59;12.90;99.90
23403;DHT22;11874;48.228;11.684;2023-02-23T13:57:30;12.70;99.90
23403;DHT22;11874;48.228;11.684;2023-02-23T14:00:00;12.80;99.90
23403;DHT22;11874;48.228;11.684;2023-02-23T14:02:33;12.90;99.90
23403;DHT22;11874;48.228;11.684;2023-02-23T14:05:04;12.90;99.90
23403;DHT22;11874;48.228;11.684;2023-02-23T14:07:38;13.10;99.90
23403;DHT22;11874;48.228;11.684;2023-02-23T14:10:14;13.30;99.90
23403;DHT22;11874;48.228;11.684;2023-02-23T14:13:03;13.40;99.90
23403;DHT22;11874;48.228;11.684;2023-02-23T14:15:44;13.40;99.90
23403;DHT22;11874;48.228;11.684;2023-02-23T14:18:31;13.40;99.90
23403;DHT22;11874;48.228;11.684;2023-02-23T14:21:12;13.30;99.90
23403;DHT22;11874;48.228;11.684;2023-02-23T14:23:53;12.60;99.90
23403;DHT22;11874;48.228;11.684;2023-02-23T14:26:39;13.30;99.90
23403;DHT22;11874;48.228;11.684;2023-02-23T14:29:20;13.10;99.90
23403;DHT22;11874;48.228;11.684;2023-02-23T14:31:56;13.00;99.90
23403;DHT22;11874;48.228;11.684;2023-02-23T14:34:47;13.80;99.90
23403;DHT22;11874;48.228;11.684;2023-02-23T14:37:31;13.00;99.90
23403;DHT22;11874;48.228;11.684;2023-02-23T14:40:10;12.90;99.90
23403;DHT22;11874;48.228;11.684;2023-02-23T14:42:40;12.90;99.90
23403;DHT22;11874;48.228;11.684;2023-02-23T14:45:17;12.90;99.90
23403;DHT22;11874;48.228;11.684;2023-02-23T14:47:50;12.80;99.90
23403;DHT22;11874;48.228;11.684;2023-02-23T14:50:27;12.90;99.90
23403;DHT22;11874;48.228;11.684;2023-02-23T14:52:56;12.80;99.90
23403;DHT22;11874;48.228;11.684;2023-02-23T14:55:29;12.90;99.90
23403;DHT22;11874;48.228;11.684;2023-02-23T14:58:01;12.50;99.90
23403;DHT22;11874;48.228;11.684;2023-02-23T15:00:30;13.60;99.90
23403;DHT22;11874;48.228;11.684;2023-02-23T15:03:03;12.70;99.90
23403;DHT22;11874;48.228;11.684;2023-02-23T15:05:33;12.70;99.90
23403;DHT22;11874;48.228;11.684;2023-02-23T15:08:03;13.70;99.90
23403;DHT22;11874;48.228;11.684;2023-02-23T15:10:35;12.80;99.90
23403;DHT22;11874;48.228;11.684;2023-02-23T15:13:10;12.80;99.90
23403;DHT22;11874;48.228;11.684;2023-02-23T15:15:43;12.70;99.90
23403;DHT22;11874;48.228;11.684;2023-02-23T15:21:39;12.70;99.90
23403;DHT22;11874;48.228;11.684;2023-02-23T15:24:11;12.60;99.90
23403;DHT22;11874;48.228;11.684;2023-02-23T15:26:40;12.70;99.90
23403;DHT22;11874;48.228;11.684;2023-02-23T15:29:12;12.50;99.90
23403;DHT22;11874;48.228;11.684;2023-02-23T15:31:42;12.50;99.90
23403;DHT22;11874;48.228;11.684;2023-02-23T15:34:18;12.50;99.90
23403;DHT22;11874;48.228;11.684;2023-02-23T15:36:51;12.50;99.90
23403;DHT22;11874;48.228;11.684;2023-02-23T15:39:29;12.40;99.90
23403;DHT22;11874;48.228;11.684;2023-02-23T15:42:01;12.40;99.90
23403;DHT22;11874;48.228;11.684;2023-02-23T15:44:30;12.40;99.90
23403;DHT22;11874;48.228;11.684;2023-02-23T15:47:17;12.30;99.90
23403;DHT22;11874;48.228;11.684;2023-02-23T15:49:46;12.30;99.90
23403;DHT22;11874;48.228;11.684;2023-02-23T15:52:21;12.20;99.90
23403;DHT22;11874;48.228;11.684;2023-02-23T15:54:53;12.30;99.90
23403;DHT22;11874;48.228;11.684;2023-02-23T15:57:25;12.20;99.90
23403;DHT22;11874;48.228;11.684;2023-02-23T15:59:57;12.20;99.90
23403;DHT22;11874;48.228;11.684;2023-02-23T16:02:25;12.20;99.90
23403;DHT22;11874;48.228;11.684;2023-02-23T16:04:53;12.20;99.90
23403;DHT22;11874;48.228;11.684;2023-02-23T16:07:26;12.20;99.90
23403;DHT22;11874;48.228;11.684;2023-02-23T16:10:02;12.20;99.90
23403;DHT22;11874;48.228;11.684;2023-02-23T16:12:32;12.20;99.90
23403;DHT22;11874;48.228;11.684;2023-02-23T16:15:04;12.20;99.90
23403;DHT22;11874;48.228;11.684;2023-02-23T16:17:38;12.10;99.90
23403;DHT22;11874;48.228;11.684;2023-02-23T16:20:14;12.10;99.90
23403;DHT22;11874;48.228;11.684;2023-02-23T16:22:44;12.00;99.90
23403;DHT22;11874;48.228;11.684;2023-02-23T21:57:01;9.60;99.90
23403;DHT22;11874;48.228;11.684;2023-02-23T21:59:30;9.70;99.90
23403;DHT22;11874;48.228;11.684;2023-02-23T22:02:00;9.70;99.90
23403;DHT22;11874;48.228;11.684;2023-02-23T22:04:28;9.70;99.90
23403;DHT22;11874;48.228;11.684;2023-02-23T22:06:56;9.80;99.90
23403;DHT22;11874;48.228;11.684;2023-02-23T22:09:24;9.80;99.90
23403;DHT22;11874;48.228;11.684;2023-02-23T22:11:52;9.80;99.90
23403;DHT22;11874;48.228;11.684;2023-02-23T22:14:21;9.80;99.90
23403;DHT22;11874;48.228;11.684;2023-02-23T22:16:49;9.80;99.90
23403;DHT22;11874;48.228;11.684;2023-02-23T22:19:17;9.80;99.90
23403;DHT22;11874;48.228;11.684;2023-02-23T22:21:45;9.90;99.90
23403;DHT22;11874;48.228;11.684;2023-02-23T22:24:14;9.90;99.90
23403;DHT22;11874;48.228;11.684;2023-02-23T22:26:43;9.90;99.90
23403;DHT22;11874;48.228;11.684;2023-02-23T22:29:15;9.90;99.90
23403;DHT22;11874;48.228;11.684;2023-02-23T22:31:45;9.90;99.90
23403;DHT22;11874;48.228;11.684;2023-02-23T22:34:13;9.90;99.90
23403;DHT22;11874;48.228;11.684;2023-02-23T22:36:41;9.90;99.90
23403;DHT22;11874;48.228;11.684;2023-02-23T22:39:09;9.90;99.90
23403;DHT22;11874;48.228;11.684;2023-02-23T22:41:38;9.90;99.90
23403;DHT22;11874;48.228;11.684;2023-02-23T22:44:09;9.90;99.90
23403;DHT22;11874;48.228;11.684;2023-02-23T22:46:39;9.90;99.90
23403;DHT22;11874;48.228;11.684;2023-02-23T22:49:09;9.90;99.90
23403;DHT22;11874;48.228;11.684;2023-02-23T22:51:37;10.00;99.90
23403;DHT22;11874;48.228;11.684;2023-02-23T22:54:05;10.00;99.90
23403;DHT22;11874;48.228;11.684;2023-02-23T22:56:33;9.90;99.90
23403;DHT22;11874;48.228;11.684;2023-02-23T22:59:02;10.00;99.90
23403;DHT22;11874;48.228;11.684;2023-02-23T23:01:31;10.00;99.90
23403;DHT22;11874;48.228;11.684;2023-02-23T23:03:59;9.90;99.90
23403;DHT22;11874;48.228;11.684;2023-02-23T23:06:37;9.90;99.90
23403;DHT22;11874;48.228;11.684;2023-02-23T23:09:06;9.90;99.90
23403;DHT22;11874;48.228;11.684;2023-02-23T23:11:34;9.90;99.90
23403;DHT22;11874;48.228;11.684;2023-02-23T23:14:03;9.90;99.90
23403;DHT22;11874;48.228;11.684;2023-02-23T23:16:36;9.90;99.90
23403;DHT22;11874;48.228;11.684;2023-02-23T23:19:07;9.90;99.90
23403;DHT22;11874;48.228;11.684;2023-02-23T23:21:40;9.80;99.90
23403;DHT22;11874;48.228;11.684;2023-02-23T23:24:10;9.80;99.90
23403;DHT22;11874;48.228;11.684;2023-02-23T23:26:39;9.90;99.90
23403;DHT22;11874;48.228;11.684;2023-02-23T23:29:10;9.90;99.90
